Time;durP1;ratioP1;P1;durP2;ratioP2;P2;SDS_P1;SDS_P2;PMS_P1;PMS_P2;Temp;Humidity;BMP_temperature;BMP_pressure;BME280_temperature;BME280_humidity;BME280_pressure;Samples;Min_cycle;Max_cycle;Signal;HPM_P1;HPM_P2
2022/03/11 00:03:36;;;;;;;2.72;1.80;;;16.90;54.90;;;;;;10450005;28;20100;-62
2022/03/11 00:08:37;;;;;;;2.38;1.88;;;16.90;55.00;;;;;;10449044;28;20475;-62
2022/03/11 00:13:38;;;;;;;2.65;1.80;;;16.90;55.20;;;;;;10447983;28;20061;-63
2022/03/11 00:18:38;;;;;;;3.47;1.73;;;16.80;55.10;;;;;;10465674;28;20391;-62
2022/03/11 00:23:40;;;;;;;2.50;1.60;;;16.90;54.80;;;;;;10456757;28;20116;-62
2022/03/11 00:28:41;;;;;;;2.38;1.70;;;16.90;54.90;;;;;;10439381;28;20107;-62
2022/03/11 00:33:42;;;;;;;3.05;2.05;;;16.80;55.00;;;;;;10444573;28;20124;-62
2022/03/11 00:38:43;;;;;;;2.53;1.85;;;16.80;55.20;;;;;;10459538;28;20040;-62
2022/03/11 00:43:43;;;;;;;3.75;2.28;;;16.90;54.80;;;;;;10459141;28;20112;-62
2022/03/11 00:48:44;;;;;;;2.80;1.77;;;16.90;54.80;;;;;;10453127;28;20037;-62
2022/03/11 00:53:45;;;;;;;2.58;1.83;;;16.90;54.90;;;;;;10458635;28;20057;-62
2022/03/11 00:58:46;;;;;;;3.58;2.10;;;16.90;55.10;;;;;;10424407;28;20136;-62
2022/03/11 01:03:47;;;;;;;3.42;2.05;;;16.90;54.90;;;;;;10439348;28;20036;-62
2022/03/11 01:08:47;;;;;;;2.22;1.50;;;17.00;54.70;;;;;;10446398;28;20066;-62
2022/03/11 01:13:48;;;;;;;3.10;1.65;;;16.90;54.70;;;;;;10421841;28;20460;-62
2022/03/11 01:18:49;;;;;;;2.25;1.60;;;16.90;54.90;;;;;;10463875;28;20075;-62
2022/03/11 01:23:50;;;;;;;2.60;1.70;;;16.80;54.90;;;;;;10459281;28;20029;-62
2022/03/11 01:28:52;;;;;;;2.45;1.60;;;17.00;54.70;;;;;;10442340;28;20052;-62
2022/03/11 01:33:52;;;;;;;2.67;1.63;;;17.00;54.60;;;;;;10445653;28;20543;-62
2022/03/11 01:38:54;;;;;;;2.15;1.70;;;16.90;55.00;;;;;;10437929;28;20108;-62
2022/03/11 01:44:06;;;;;;;2.65;1.70;;;16.80;54.90;;;;;;10456606;28;20029;-62
2022/03/11 01:49:09;;;;;;;2.45;1.75;;;16.90;54.60;;;;;;10452034;28;20025;-62
2022/03/11 01:54:10;;;;;;;2.58;2.10;;;17.00;54.50;;;;;;10438550;28;20029;-62
2022/03/11 01:59:11;;;;;;;2.90;1.92;;;17.10;54.30;;;;;;10448880;28;20397;-62
2022/03/11 02:04:12;;;;;;;2.53;1.85;;;17.20;54.10;;;;;;10462586;28;20059;-63
2022/03/11 02:09:13;;;;;;;2.70;1.98;;;17.10;54.10;;;;;;10464065;28;20127;-62
2022/03/11 02:14:14;;;;;;;2.35;1.92;;;17.00;54.20;;;;;;10437639;28;20052;-62
2022/03/11 02:19:15;;;;;;;3.20;1.80;;;16.90;54.40;;;;;;10445304;28;20028;-63
2022/03/11 02:24:16;;;;;;;2.78;1.63;;;17.00;54.30;;;;;;10442861;28;20037;-63
2022/03/11 02:29:16;;;;;;;2.13;1.40;;;17.10;54.30;;;;;;10445076;28;20085;-62
2022/03/11 02:34:17;;;;;;;1.63;1.38;;;17.00;54.30;;;;;;10423291;28;20785;-62
2022/03/11 02:39:18;;;;;;;2.38;1.60;;;17.00;54.40;;;;;;10456412;28;20111;-62
2022/03/11 02:44:18;;;;;;;2.55;1.75;;;17.10;54.20;;;;;;10423412;28;20060;-62
2022/03/11 02:49:19;;;;;;;1.98;1.45;;;17.10;54.20;;;;;;10441920;28;20604;-62
2022/03/11 02:54:20;;;;;;;3.08;1.60;;;17.00;54.30;;;;;;10418556;28;20039;-63
2022/03/11 02:59:20;;;;;;;2.67;1.88;;;17.00;54.30;;;;;;10438481;28;20154;-62
2022/03/11 03:04:21;;;;;;;2.38;1.48;;;17.00;54.20;;;;;;10461349;28;20094;-62
2022/03/11 03:09:22;;;;;;;2.17;1.42;;;17.00;54.20;;;;;;10456267;28;20128;-62
2022/03/11 03:14:22;;;;;;;2.60;1.50;;;17.00;54.40;;;;;;10442358;28;20123;-62
2022/03/11 03:19:23;;;;;;;1.95;1.48;;;17.10;54.20;;;;;;10459979;28;20036;-62
2022/03/11 03:24:24;;;;;;;2.95;1.83;;;17.00;54.10;;;;;;10439324;28;20204;-63
2022/03/11 03:29:24;;;;;;;2.65;1.70;;;17.00;54.20;;;;;;10419369;28;20419;-62
2022/03/11 03:34:34;;;;;;;2.92;1.40;;;17.00;54.20;;;;;;10435261;28;20507;-62
2022/03/11 03:39:36;;;;;;;;;;;17.10;54.00;;;;;;10461638;28;20118;-62
2022/03/11 03:44:36;;;;;;;2.63;1.73;;;17.00;54.10;;;;;;10437716;28;19909;-62
2022/03/11 03:49:37;;;;;;;1.75;1.42;;;17.00;54.30;;;;;;10444522;28;20481;-62
2022/03/11 03:54:41;;;;;;;2.30;1.35;;;17.00;54.10;;;;;;10435314;28;20056;-62
2022/03/11 03:59:42;;;;;;;2.47;1.60;;;17.00;54.10;;;;;;10439399;28;20036;-62
2022/03/11 04:04:43;;;;;;;1.73;1.40;;;17.00;54.20;;;;;;10449230;28;20455;-62
2022/03/11 04:09:43;;;;;;;2.83;1.75;;;16.90;54.20;;;;;;10464428;28;20068;-61
2022/03/11 04:14:44;;;;;;;2.78;1.77;;;17.00;54.10;;;;;;10445399;28;20029;-62
2022/03/11 04:19:45;;;;;;;2.67;1.50;;;17.00;54.00;;;;;;10442349;28;20436;-62
2022/03/11 04:24:46;;;;;;;2.13;1.35;;;17.10;53.90;;;;;;10459639;28;20061;-62
2022/03/11 04:29:47;;;;;;;2.13;1.70;;;17.10;53.70;;;;;;10469903;28;20033;-62
2022/03/11 04:34:48;;;;;;;2.38;1.58;;;17.00;53.80;;;;;;10428021;28;20519;-63
2022/03/11 04:39:48;;;;;;;2.42;1.67;;;17.00;54.00;;;;;;10465131;28;20033;-62
2022/03/11 04:44:49;;;;;;;2.35;1.55;;;17.10;53.90;;;;;;10441201;28;20112;-62
2022/03/11 04:49:50;;;;;;;2.30;1.65;;;17.10;53.70;;;;;;10465486;28;20071;-63
2022/03/11 04:54:50;;;;;;;3.25;1.80;;;17.00;53.90;;;;;;10440696;28;20025;-62
2022/03/11 04:59:51;;;;;;;2.28;1.50;;;16.90;53.90;;;;;;10429767;28;20052;-62
2022/03/11 05:04:52;;;;;;;2.40;1.60;;;17.00;53.80;;;;;;10447715;28;20263;-62
2022/03/11 05:09:52;;;;;;;2.08;1.50;;;17.00;53.90;;;;;;10446154;28;20102;-62
2022/03/11 05:14:53;;;;;;;2.80;1.38;;;16.90;53.90;;;;;;10441748;28;20120;-62
2022/03/11 05:19:53;;;;;;;2.10;1.40;;;17.10;53.70;;;;;;10457755;28;20064;-62
2022/03/11 05:24:54;;;;;;;2.17;1.23;;;17.10;53.40;;;;;;10439331;28;20089;-62
2022/03/11 05:29:55;;;;;;;2.60;1.75;;;17.10;53.50;;;;;;10431933;28;20064;-62
2022/03/11 05:34:55;;;;;;;3.30;1.85;;;17.10;53.40;;;;;;10431663;28;20505;-62
2022/03/11 05:39:56;;;;;;;2.20;1.50;;;17.10;53.50;;;;;;10458377;28;20122;-63
2022/03/11 05:44:57;;;;;;;1.92;1.50;;;17.00;53.60;;;;;;10437893;28;20057;-62
2022/03/11 05:49:58;;;;;;;2.28;1.45;;;17.00;53.60;;;;;;10423949;28;20036;-64
2022/03/11 05:54:59;;;;;;;6.68;1.90;;;17.10;53.60;;;;;;10440285;28;20105;-64
2022/03/11 05:59:59;;;;;;;4.28;1.40;;;17.00;54.10;;;;;;10428002;28;20163;-63
2022/03/11 06:05:00;;;;;;;5.57;1.60;;;17.30;53.80;;;;;;10419311;28;20037;-63
2022/03/11 06:10:01;;;;;;;5.20;1.90;;;17.20;55.90;;;;;;10437509;28;20076;-63
2022/03/11 06:15:07;;;;;;;4.80;2.05;;;17.30;56.40;;;;;;10437317;28;20055;-63
2022/03/11 06:20:09;;;;;;;6.43;2.50;;;17.20;55.80;;;;;;10445501;28;20033;-62
2022/03/11 06:25:10;;;;;;;12.13;2.50;;;17.20;56.30;;;;;;10437001;28;20090;-64
2022/03/11 06:30:12;;;;;;;15.48;3.13;;;17.10;56.40;;;;;;10436776;28;20179;-64
2022/03/11 06:35:14;;;;;;;10.35;2.88;;;17.10;56.80;;;;;;10436365;28;20044;-61
2022/03/11 06:40:16;;;;;;;12.15;2.83;;;17.10;56.90;;;;;;10439767;28;20025;-62
2022/03/11 06:45:18;;;;;;;7.68;2.55;;;17.20;57.30;;;;;;10430064;28;20041;-65
2022/03/11 06:50:19;;;;;;;9.20;3.03;;;17.10;57.30;;;;;;10437443;28;20037;-62
2022/03/11 06:55:20;;;;;;;15.48;3.58;;;17.00;57.40;;;;;;10455905;28;20107;-64
2022/03/11 07:00:20;;;;;;;17.98;4.97;;;17.00;57.60;;;;;;10447508;28;20029;-63
2022/03/11 07:05:21;;;;;;;19.83;3.38;;;17.00;57.50;;;;;;10446531;28;20056;-63
2022/03/11 07:10:22;;;;;;;24.30;5.82;;;16.90;57.60;;;;;;10439836;28;20068;-62
2022/03/11 07:15:22;;;;;;;27.40;5.32;;;16.80;57.90;;;;;;10433707;28;20135;-62
2022/03/11 07:20:23;;;;;;;24.15;4.95;;;16.80;58.00;;;;;;10433260;28;20128;-62
2022/03/11 07:25:24;;;;;;;13.18;3.30;;;16.70;58.10;;;;;;10436640;28;20063;-63
2022/03/11 07:30:24;;;;;;;18.67;4.30;;;16.70;58.10;;;;;;10425135;28;20036;-62
2022/03/11 07:35:25;;;;;;;17.00;3.90;;;16.60;57.70;;;;;;10426341;28;20104;-63
2022/03/11 07:40:26;;;;;;;15.07;4.75;;;16.60;58.10;;;;;;10441813;28;20534;-63
2022/03/11 07:45:27;;;;;;;19.60;4.13;;;16.70;58.30;;;;;;10447572;28;20082;-62
2022/03/11 07:50:27;;;;;;;16.52;3.47;;;16.70;58.30;;;;;;10459925;28;20033;-62
2022/03/11 07:55:28;;;;;;;13.85;3.80;;;16.60;58.10;;;;;;10427395;28;20120;-62
2022/03/11 08:00:29;;;;;;;13.20;3.90;;;16.60;58.20;;;;;;10457394;28;20064;-62
2022/03/11 08:05:30;;;;;;;10.85;3.53;;;16.60;58.30;;;;;;10443307;28;20456;-64
2022/03/11 08:10:33;;;;;;;21.90;4.07;;;16.70;58.20;;;;;;10432778;28;20067;-64
2022/03/11 08:15:35;;;;;;;19.08;3.40;;;16.70;58.50;;;;;;10449699;28;20064;-63
2022/03/11 08:20:36;;;;;;;16.17;3.45;;;16.70;58.30;;;;;;10424112;28;20368;-63
2022/03/11 08:25:37;;;;;;;11.45;3.88;;;16.80;58.50;;;;;;10423605;28;20071;-61
2022/03/11 08:30:38;;;;;;;16.85;3.80;;;16.70;58.60;;;;;;10459360;28;20107;-61
2022/03/11 08:35:39;;;;;;;18.85;3.83;;;16.70;58.20;;;;;;10455210;28;20037;-62
2022/03/11 08:40:39;;;;;;;18.67;3.30;;;16.70;58.10;;;;;;10422569;28;20026;-62
2022/03/11 08:45:40;;;;;;;13.45;3.55;;;16.70;57.80;;;;;;10458521;28;20112;-62
2022/03/11 08:50:41;;;;;;;13.65;3.78;;;16.70;57.30;;;;;;10440531;28;20032;-62
2022/03/11 08:55:42;;;;;;;8.90;3.83;;;16.70;57.20;;;;;;10440380;28;20128;-62
2022/03/11 09:00:44;;;;;;;11.52;4.10;;;16.70;57.70;;;;;;10457893;28;20100;-62
2022/03/11 09:05:45;;;;;;;11.65;3.72;;;16.70;56.80;;;;;;10457255;28;20037;-63
2022/03/11 09:10:45;;;;;;;13.85;4.15;;;16.70;56.60;;;;;;10463946;28;20495;-62
2022/03/11 09:15:46;;;;;;;14.00;4.03;;;16.70;56.50;;;;;;10436114;28;20114;-63
2022/03/11 09:20:47;;;;;;;7.00;3.30;;;16.70;56.40;;;;;;10453008;28;20052;-62
2022/03/11 09:25:50;;;;;;;8.38;3.40;;;16.80;56.40;;;;;;10438959;28;20120;-62
2022/03/11 09:30:50;;;;;;;7.72;4.10;;;16.80;56.90;;;;;;10422039;28;20033;-62
2022/03/11 09:35:51;;;;;;;7.45;3.55;;;16.80;56.20;;;;;;10438358;28;20452;-62
2022/03/11 09:40:52;;;;;;;8.32;3.30;;;16.80;56.10;;;;;;10454044;28;20033;-62
2022/03/11 09:45:53;;;;;;;7.90;3.25;;;16.80;56.00;;;;;;10431216;28;20067;-62
2022/03/11 09:50:54;;;;;;;7.65;4.07;;;16.80;55.90;;;;;;10437598;28;20033;-62
2022/03/11 09:55:55;;;;;;;7.10;3.30;;;16.80;55.80;;;;;;10437595;28;20107;-62
2022/03/11 10:00:56;;;;;;;5.72;2.80;;;16.90;55.80;;;;;;10428498;28;20032;-62
2022/03/11 10:05:57;;;;;;;5.93;3.15;;;16.90;55.70;;;;;;10424086;28;20087;-63
2022/03/11 10:11:16;;;;;;;6.50;3.60;;;16.90;55.80;;;;;;10437089;28;20041;-62
2022/03/11 10:16:22;;;;;;;7.10;3.58;;;16.90;55.70;;;;;;10454881;28;20120;-62
2022/03/11 10:21:32;;;;;;;6.18;3.33;;;16.90;55.70;;;;;;10454691;28;20029;-62
2022/03/11 10:26:46;;;;;;;7.07;3.58;;;16.90;55.50;;;;;;10437028;28;20033;-62
2022/03/11 10:31:51;;;;;;;4.50;3.08;;;17.00;55.40;;;;;;10419819;28;20037;-62
2022/03/11 10:36:53;;;;;;;5.53;2.92;;;17.00;55.40;;;;;;10431245;28;20397;-62
2022/03/11 10:41:56;;;;;;;5.68;3.28;;;17.00;55.10;;;;;;10452906;28;20384;-63
2022/03/11 10:47:34;;;;;;;5.95;3.50;;;17.10;55.10;;;;;;10419745;28;20033;-63
2022/03/11 10:52:48;;;;;;;15.45;4.07;;;17.10;55.00;;;;;;10435932;28;20409;-64
2022/03/11 10:57:58;;;;;;;11.20;4.82;;;17.10;55.10;;;;;;10431495;28;20044;-64
2022/03/11 11:03:05;;;;;;;10.85;4.72;;;17.20;54.70;;;;;;10439821;28;20048;-63
2022/03/11 11:08:06;;;;;;;20.15;5.05;;;17.20;54.80;;;;;;10453671;28;20554;-62
2022/03/11 11:13:09;;;;;;;16.85;5.78;;;17.30;55.00;;;;;;10450729;28;20029;-62
2022/03/11 11:18:14;;;;;;;12.82;5.95;;;17.30;54.90;;;;;;10435667;28;20555;-62
2022/03/11 11:23:16;;;;;;;27.40;6.25;;;17.40;54.90;;;;;;10431174;28;20033;-63
2022/03/11 11:28:22;;;;;;;32.83;6.75;;;17.30;55.50;;;;;;10443562;28;20033;-64
2022/03/11 11:33:23;;;;;;;24.20;6.65;;;17.50;55.90;;;;;;10443074;28;20706;-63
2022/03/11 11:38:27;;;;;;;25.30;6.07;;;17.50;55.20;;;;;;10443110;28;20053;-63
2022/03/11 11:43:30;;;;;;;16.20;6.55;;;17.60;55.50;;;;;;10459198;28;20036;-64
2022/03/11 11:48:45;;;;;;;14.98;5.72;;;17.60;55.40;;;;;;10442753;28;20373;-62
2022/03/11 11:53:59;;;;;;;13.48;5.82;;;17.60;55.50;;;;;;10459992;28;20036;-61
2022/03/11 11:59:02;;;;;;;16.73;6.90;;;17.70;55.40;;;;;;10430107;28;20801;-63
2022/03/11 12:04:34;;;;;;;16.15;7.10;;;17.70;55.20;;;;;;10452791;28;20134;-63
2022/03/11 12:09:40;;;;;;;22.38;7.97;;;17.70;55.60;;;;;;10453109;28;20071;-62
2022/03/11 12:20:33;;;;;;;23.95;7.88;;;17.70;56.10;;;;;;10456593;28;20090;-62
2022/03/11 12:25:39;;;;;;;24.48;7.25;;;17.70;56.10;;;;;;10436051;28;20029;-62
2022/03/11 12:30:54;;;;;;;18.77;7.78;;;17.60;56.00;;;;;;10449320;28;20401;-61
2022/03/11 12:35:56;;;;;;;12.25;6.80;;;17.60;55.80;;;;;;10458390;28;20048;-63
2022/03/11 12:41:04;;;;;;;16.55;6.82;;;17.70;55.80;;;;;;10434888;28;20040;-62
2022/03/11 12:46:06;;;;;;;16.67;7.10;;;17.60;55.70;;;;;;10441717;28;20044;-62
2022/03/11 12:51:11;;;;;;;17.80;6.47;;;17.70;55.80;;;;;;10440137;28;20025;-62
2022/03/11 12:56:11;;;;;;;13.48;6.72;;;17.70;55.80;;;;;;10440401;28;20095;-63
2022/03/11 13:01:13;;;;;;;11.52;6.13;;;17.70;55.10;;;;;;10423899;28;20060;-63
2022/03/11 13:06:15;;;;;;;9.07;5.88;;;17.60;55.40;;;;;;10441507;28;20056;-63
2022/03/11 13:11:16;;;;;;;19.85;6.53;;;17.70;55.40;;;;;;10457142;28;20037;-64
2022/03/11 13:16:16;;;;;;;23.67;6.88;;;17.80;55.20;;;;;;10455452;28;20369;-63
2022/03/11 13:21:19;;;;;;;22.52;7.57;;;17.70;55.00;;;;;;10438928;28;20036;-63
2022/03/11 13:26:22;;;;;;;13.25;6.57;;;17.80;55.00;;;;;;10439194;28;20039;-63
2022/03/11 13:31:35;;;;;;;14.32;5.85;;;17.90;55.20;;;;;;10437863;28;20122;-61
2022/03/11 13:36:40;;;;;;;33.58;8.05;;;17.90;55.30;;;;;;10424946;28;20030;-62
2022/03/11 13:41:47;;;;;;;16.70;6.60;;;17.90;55.40;;;;;;10443304;28;20477;-63
2022/03/11 13:47:10;;;;;;;12.13;6.05;;;17.90;55.80;;;;;;10438172;28;20071;-62
2022/03/11 13:52:13;;;;;;;20.85;6.82;;;17.90;56.00;;;;;;10429059;28;20029;-63
2022/03/11 13:57:19;;;;;;;15.07;6.18;;;17.90;56.40;;;;;;10437505;28;20115;-64
2022/03/11 14:02:23;;;;;;;15.70;6.55;;;18.00;56.70;;;;;;10443832;28;20361;-63
2022/03/11 14:07:24;;;;;;;17.38;7.05;;;18.10;56.70;;;;;;10421752;28;20084;-62
2022/03/11 14:12:28;;;;;;;17.05;6.82;;;18.10;56.50;;;;;;10454904;28;20398;-63
2022/03/11 14:17:31;;;;;;;17.30;6.65;;;18.10;56.70;;;;;;10454833;28;20028;-62
2022/03/11 14:22:34;;;;;;;13.93;5.30;;;18.20;56.90;;;;;;10431075;28;20548;-63
2022/03/11 14:27:35;;;;;;;14.82;5.80;;;18.10;57.20;;;;;;10426554;28;20037;-63
2022/03/11 14:32:36;;;;;;;13.40;6.28;;;18.10;57.40;;;;;;10432809;28;20412;-66
2022/03/11 14:37:37;;;;;;;14.38;6.30;;;18.20;57.50;;;;;;10453359;28;20098;-64
2022/03/11 14:42:39;;;;;;;15.68;6.65;;;18.20;57.10;;;;;;10413764;28;20117;-63
2022/03/11 14:47:42;;;;;;;12.10;6.32;;;18.10;57.20;;;;;;10424614;28;20033;-64
2022/03/11 14:52:46;;;;;;;13.40;5.90;;;18.10;57.20;;;;;;10443787;28;20108;-65
2022/03/11 14:57:47;;;;;;;10.38;5.32;;;18.10;57.30;;;;;;10453756;28;20021;-65
2022/03/11 15:02:47;;;;;;;19.65;5.93;;;18.10;57.00;;;;;;10435127;28;20112;-54
2022/03/11 15:07:49;;;;;;;13.20;5.18;;;18.20;57.70;;;;;;10452959;28;20049;-52
2022/03/11 15:12:53;;;;;;;30.75;5.90;;;18.30;57.40;;;;;;10453120;28;20037;-56
2022/03/11 15:17:54;;;;;;;20.63;6.43;;;18.20;57.60;;;;;;10435965;28;20058;-53
2022/03/11 15:22:55;;;;;;;24.25;6.50;;;18.20;57.40;;;;;;10453150;28;20400;-54
2022/03/11 15:27:56;;;;;;;27.50;6.72;;;18.30;57.70;;;;;;10452921;28;20071;-51
2022/03/11 15:32:58;;;;;;;24.55;7.40;;;18.10;57.90;;;;;;10452798;28;20041;-55
2022/03/11 15:37:59;;;;;;;25.83;7.45;;;18.00;57.80;;;;;;10452953;28;20098;-55
2022/03/11 15:43:02;;;;;;;23.05;6.97;;;18.00;57.90;;;;;;10452030;28;20429;-55
2022/03/11 15:48:04;;;;;;;11.15;5.50;;;17.90;57.80;;;;;;10452589;28;20068;-55
2022/03/11 15:53:05;;;;;;;16.13;7.13;;;17.80;57.90;;;;;;10436809;28;20334;-56
2022/03/11 15:58:06;;;;;;;10.05;6.85;;;17.70;57.90;;;;;;10457608;28;20082;-55
2022/03/11 16:03:08;;;;;;;13.10;6.20;;;17.70;58.00;;;;;;10460465;28;20024;-56
2022/03/11 16:08:09;;;;;;;21.83;7.85;;;17.60;58.10;;;;;;10450044;28;20057;-56
2022/03/11 16:13:09;;;;;;;23.08;9.75;;;17.50;57.60;;;;;;10441365;28;20041;-57
2022/03/11 16:18:10;;;;;;;20.75;7.20;;;17.50;57.40;;;;;;10447631;28;20063;-53
2022/03/11 16:23:11;;;;;;;20.58;7.50;;;17.50;57.40;;;;;;10459070;28;20070;-57
2022/03/11 16:28:12;;;;;;;15.25;8.00;;;17.50;57.60;;;;;;10459087;28;20048;-57
2022/03/11 16:33:13;;;;;;;22.75;9.32;;;17.50;57.60;;;;;;10440629;28;20400;-58
2022/03/11 16:38:15;;;;;;;23.95;8.55;;;17.60;58.10;;;;;;10440086;28;20028;-55
2022/03/11 16:43:16;;;;;;;16.60;6.80;;;17.50;58.00;;;;;;10456981;28;20025;-56
2022/03/11 16:48:17;;;;;;;27.10;6.90;;;17.50;58.10;;;;;;10457261;28;20065;-56
2022/03/11 16:53:17;;;;;;;19.58;7.55;;;17.50;56.70;;;;;;10442830;28;20108;-58
2022/03/11 16:58:18;;;;;;;30.02;8.80;;;17.40;56.10;;;;;;10457457;28;20510;-57
2022/03/11 17:03:20;;;;;;;37.53;19.05;;;17.50;57.90;;;;;;10464221;28;20052;-56
2022/03/11 17:08:21;;;;;;;33.75;17.50;;;18.00;62.40;;;;;;10438488;28;20098;-57
2022/03/11 17:13:22;;;;;;;35.78;17.38;;;18.20;62.80;;;;;;10455563;28;20029;-58
2022/03/11 17:18:23;;;;;;;27.52;12.43;;;18.20;62.00;;;;;;10470237;28;20380;-55
2022/03/11 17:27:48;;;;;;;22.13;12.77;;;17.80;62.50;;;;;;10422863;27;1204911;-56
2022/03/11 17:32:49;;;;;;;23.33;11.90;;;17.80;62.10;;;;;;10448931;28;20030;-56
2022/03/11 17:37:50;;;;;;;19.45;10.98;;;17.70;62.10;;;;;;10448136;28;20052;-56
2022/03/11 17:42:50;;;;;;;21.35;11.50;;;17.70;62.20;;;;;;10421566;28;20033;-56
2022/03/11 17:47:52;;;;;;;21.65;12.23;;;17.60;62.40;;;;;;10404522;28;20111;-56
2022/03/11 17:52:52;;;;;;;23.40;11.18;;;17.60;60.60;;;;;;10402622;28;20057;-56
2022/03/11 17:57:54;;;;;;;20.13;10.43;;;17.60;61.40;;;;;;10403046;28;20030;-57
2022/03/11 18:02:55;;;;;;;35.80;11.70;;;17.60;61.60;;;;;;10409922;28;20049;-57
2022/03/11 18:07:55;;;;;;;29.83;10.98;;;17.50;61.20;;;;;;10434855;28;20021;-56
2022/03/11 18:12:56;;;;;;;21.70;9.02;;;17.50;61.10;;;;;;10420943;28;20671;-57
2022/03/11 18:17:57;;;;;;;18.15;10.43;;;17.40;60.60;;;;;;10421404;28;20034;-56
2022/03/11 18:22:57;;;;;;;20.58;8.80;;;17.30;60.40;;;;;;10419274;28;20053;-56
2022/03/11 18:28:02;;;;;;;17.90;8.65;;;17.30;60.10;;;;;;10408631;28;20060;-56
2022/03/11 18:33:05;;;;;;;18.48;8.05;;;17.30;60.00;;;;;;10416310;28;20540;-56
2022/03/11 18:38:05;;;;;;;18.08;8.52;;;17.30;60.00;;;;;;10395345;28;20493;-56
2022/03/11 18:43:06;;;;;;;11.35;7.15;;;17.30;59.90;;;;;;10361977;28;20025;-56
2022/03/11 18:48:07;;;;;;;19.88;8.95;;;17.30;59.80;;;;;;10395562;28;20080;-56
2022/03/11 18:53:08;;;;;;;10.88;7.50;;;17.40;59.70;;;;;;10389815;28;20061;-56
2022/03/11 18:58:09;;;;;;;11.63;7.35;;;17.30;59.70;;;;;;10417518;28;20472;-56
2022/03/11 19:03:11;;;;;;;10.50;6.65;;;17.40;59.80;;;;;;10396389;28;20089;-56
2022/03/11 19:08:11;;;;;;;16.55;7.05;;;17.40;59.80;;;;;;10384322;28;20048;-56
2022/03/11 19:13:12;;;;;;;14.35;6.93;;;17.40;59.80;;;;;;10384690;28;20041;-56
2022/03/11 19:18:13;;;;;;;11.75;8.02;;;17.40;59.80;;;;;;10394166;28;20132;-56
2022/03/11 19:23:14;;;;;;;10.35;6.47;;;17.40;59.70;;;;;;10371198;28;20030;-56
2022/03/11 19:28:14;;;;;;;11.13;6.32;;;17.40;59.70;;;;;;10379913;28;20053;-56
2022/03/11 19:33:16;;;;;;;11.68;6.88;;;17.30;59.80;;;;;;10390382;28;20440;-56
2022/03/11 19:38:16;;;;;;;15.40;7.05;;;17.40;59.80;;;;;;10378780;28;20047;-56
2022/03/11 19:43:17;;;;;;;16.92;6.95;;;17.40;59.70;;;;;;10390675;28;20499;-55
2022/03/11 19:48:18;;;;;;;9.40;6.22;;;17.40;59.90;;;;;;10368794;28;20037;-56
2022/03/11 19:53:19;;;;;;;10.48;6.03;;;17.40;59.70;;;;;;10378736;28;20137;-55
2022/03/11 19:58:21;;;;;;;7.30;5.20;;;17.30;59.50;;;;;;10385475;28;20030;-56
2022/03/11 20:03:22;;;;;;;11.15;5.45;;;17.30;59.50;;;;;;10387838;28;20013;-55
2022/03/11 20:08:22;;;;;;;7.72;5.30;;;17.30;59.50;;;;;;10372867;28;20064;-54
2022/03/11 20:13:27;;;;;;;11.68;6.47;;;17.30;59.50;;;;;;10395247;28;20143;-55
2022/03/11 20:18:28;;;;;;;8.90;5.97;;;17.20;60.00;;;;;;10391334;28;20026;-55
2022/03/11 20:23:28;;;;;;;9.90;5.45;;;17.20;59.60;;;;;;10375734;28;20529;-56
2022/03/11 20:28:29;;;;;;;14.50;6.03;;;17.20;59.30;;;;;;10389892;28;20076;-56
2022/03/11 20:33:30;;;;;;;9.82;5.22;;;17.10;59.20;;;;;;10352577;28;20032;-56
2022/03/11 20:38:31;;;;;;;8.73;5.63;;;17.20;59.30;;;;;;10372418;28;20112;-56
2022/03/11 20:43:34;;;;;;;10.10;5.95;;;17.10;59.20;;;;;;10386212;28;20079;-56
2022/03/11 20:48:35;;;;;;;7.15;5.32;;;17.10;59.10;;;;;;10384724;28;20453;-56
2022/03/11 20:53:36;;;;;;;7.50;5.43;;;17.10;59.10;;;;;;10354247;28;20039;-56
2022/03/11 20:58:37;;;;;;;11.75;6.00;;;17.10;59.10;;;;;;10336693;28;20029;-56
2022/03/11 21:03:38;;;;;;;7.50;4.85;;;17.10;58.90;;;;;;10367693;28;20030;-56
2022/03/11 21:08:39;;;;;;;9.90;5.15;;;17.10;58.90;;;;;;10364243;28;20029;-56
2022/03/11 21:13:39;;;;;;;7.03;5.00;;;17.00;58.80;;;;;;10372440;28;20145;-56
2022/03/11 21:18:41;;;;;;;7.22;4.95;;;17.00;58.70;;;;;;10411481;28;20116;-56
2022/03/11 21:23:42;;;;;;;8.10;4.70;;;17.00;58.70;;;;;;10373958;28;20046;-56
2022/03/11 21:28:43;;;;;;;6.35;4.63;;;17.00;58.70;;;;;;10408708;28;20112;-56
2022/03/11 21:33:44;;;;;;;7.93;4.78;;;17.00;58.50;;;;;;10372428;28;20032;-56
2022/03/11 21:38:45;;;;;;;7.70;4.40;;;17.00;58.50;;;;;;10373313;28;20458;-56
2022/03/11 21:43:47;;;;;;;7.15;4.70;;;17.00;58.40;;;;;;10402519;28;20140;-55
2022/03/11 21:48:47;;;;;;;6.38;4.32;;;17.00;58.30;;;;;;10363389;28;20482;-56
2022/03/11 21:53:50;;;;;;;6.10;4.03;;;17.00;58.20;;;;;;10367182;28;20033;-55
2022/03/11 21:58:51;;;;;;;7.28;4.43;;;17.00;58.20;;;;;;10366685;28;20034;-56
2022/03/11 22:03:51;;;;;;;5.80;4.32;;;17.00;58.10;;;;;;10371420;28;20362;-56
2022/03/11 22:08:54;;;;;;;6.38;4.53;;;16.90;58.10;;;;;;10366429;28;20068;-56
2022/03/11 22:13:56;;;;;;;6.93;4.13;;;17.00;58.00;;;;;;10376412;28;20057;-56
2022/03/11 22:18:56;;;;;;;5.72;4.43;;;16.90;58.00;;;;;;10379090;28;20041;-57
2022/03/11 22:23:57;;;;;;;7.05;4.10;;;17.00;57.90;;;;;;10373241;28;20084;-56
2022/03/11 22:28:58;;;;;;;6.80;4.38;;;17.00;57.80;;;;;;10378668;28;20119;-56
2022/03/11 22:33:59;;;;;;;5.22;4.00;;;17.00;57.80;;;;;;10387148;28;20033;-55
2022/03/11 22:39:00;;;;;;;7.25;4.43;;;17.00;57.80;;;;;;10377971;28;20038;-56
2022/03/11 22:44:03;;;;;;;7.53;4.20;;;17.00;57.70;;;;;;10377664;28;20121;-56
2022/03/11 22:49:05;;;;;;;5.28;4.10;;;16.90;57.60;;;;;;10390618;28;20034;-56
2022/03/11 22:54:08;;;;;;;6.40;4.03;;;16.90;57.60;;;;;;10404400;28;20036;-56
2022/03/11 22:59:13;;;;;;;5.28;3.90;;;16.90;57.70;;;;;;10367403;28;20041;-56
2022/03/11 23:04:15;;;;;;;5.70;4.55;;;17.00;57.80;;;;;;10343578;28;20029;-56
2022/03/11 23:09:31;;;;;;;4.68;3.53;;;17.00;57.70;;;;;;10391247;28;20026;-56
2022/03/11 23:14:35;;;;;;;5.68;3.70;;;17.00;57.70;;;;;;10375930;28;20030;-55
2022/03/11 23:19:36;;;;;;;5.78;3.72;;;16.90;57.60;;;;;;10397836;28;20042;-55
2022/03/11 23:24:37;;;;;;;6.38;5.03;;;17.00;57.70;;;;;;10375990;28;20053;-56
2022/03/11 23:29:38;;;;;;;5.50;3.88;;;16.90;57.60;;;;;;10377009;28;20497;-56
2022/03/11 23:34:39;;;;;;;4.03;3.25;;;16.90;57.50;;;;;;10417081;28;20022;-56
2022/03/11 23:39:40;;;;;;;5.13;3.67;;;16.90;57.50;;;;;;10383975;28;20472;-55
2022/03/11 23:44:42;;;;;;;4.07;3.05;;;16.90;57.50;;;;;;10371387;28;20038;-55
2022/03/11 23:49:42;;;;;;;4.35;3.03;;;16.90;57.50;;;;;;10386586;28;20029;-56
2022/03/11 23:54:43;;;;;;;5.68;3.55;;;16.90;57.40;;;;;;10390376;28;20108;-56
2022/03/11 23:59:44;;;;;;;6.60;3.65;;;16.90;57.50;;;;;;10384215;28;20081;-56
